sensor_id;sensor_type;location;lat;lon;timestamp;pressure;altitude;pressure_sealevel;temperature;humidity
85560;BME280;76003;49.038;16.594;2024-01-30T00:02:18;101454.16;;;-1.21;89.17
85560;BME280;76003;49.038;16.594;2024-01-30T00:04:58;101462.84;;;-1.19;89.09
85560;BME280;76003;49.038;16.594;2024-01-30T00:07:24;101485.00;;;-1.17;89.22
85560;BME280;76003;49.038;16.594;2024-01-30T00:10:10;101483.69;;;-1.13;89.59
85560;BME280;76003;49.038;16.594;2024-01-30T00:12:51;101440.56;;;-1.45;89.63
85560;BME280;76003;49.038;16.594;2024-01-30T00:15:33;101494.44;;;-1.31;89.37
85560;BME280;76003;49.038;16.594;2024-01-30T00:18:13;101482.81;;;-1.39;89.40
85560;BME280;76003;49.038;16.594;2024-01-30T00:20:54;101500.84;;;-1.41;89.57
85560;BME280;76003;49.038;16.594;2024-01-30T00:23:35;101504.25;;;-1.39;90.26
85560;BME280;76003;49.038;16.594;2024-01-30T00:26:16;101441.66;;;-1.73;90.09
85560;BME280;76003;49.038;16.594;2024-01-30T00:28:57;101504.53;;;-1.42;90.40
85560;BME280;76003;49.038;16.594;2024-01-30T00:31:23;101484.66;;;-1.57;90.50
85560;BME280;76003;49.038;16.594;2024-01-30T00:34:20;101474.88;;;-1.66;90.64
85560;BME280;76003;49.038;16.594;2024-01-30T00:36:45;101501.13;;;-1.52;90.39
85560;BME280;76003;49.038;16.594;2024-01-30T00:39:32;101468.50;;;-1.65;90.93
85560;BME280;76003;49.038;16.594;2024-01-30T00:42:06;101502.41;;;-1.39;90.61
85560;BME280;76003;49.038;16.594;2024-01-30T00:44:52;101476.00;;;-1.51;90.58
85560;BME280;76003;49.038;16.594;2024-01-30T00:47:32;101487.16;;;-1.38;90.34
85560;BME280;76003;49.038;16.594;2024-01-30T00:49:58;101475.06;;;-1.42;90.35
85560;BME280;76003;49.038;16.594;2024-01-30T00:53:40;101480.06;;;-1.47;90.86
85560;BME280;76003;49.038;16.594;2024-01-30T00:57:07;101489.63;;;-1.45;90.44
85560;BME280;76003;49.038;16.594;2024-01-30T01:00:32;101473.50;;;-1.53;90.72
85560;BME280;76003;49.038;16.594;2024-01-30T01:03:58;101492.47;;;-1.46;90.66
85560;BME280;76003;49.038;16.594;2024-01-30T01:07:23;101479.22;;;-1.65;90.53
85560;BME280;76003;49.038;16.594;2024-01-30T01:10:49;101467.94;;;-1.77;90.40
85560;BME280;76003;49.038;16.594;2024-01-30T01:13:15;101451.63;;;-1.66;90.88
85560;BME280;76003;49.038;16.594;2024-01-30T01:16:01;101462.84;;;-1.45;90.67
85560;BME280;76003;49.038;16.594;2024-01-30T01:18:27;101410.31;;;-1.81;90.58
85560;BME280;76003;49.038;16.594;2024-01-30T01:21:13;101438.44;;;-1.59;90.39
85560;BME280;76003;49.038;16.594;2024-01-30T01:23:39;101459.63;;;-1.48;90.64
85560;BME280;76003;49.038;16.594;2024-01-30T01:26:25;101466.44;;;-1.36;90.63
85560;BME280;76003;49.038;16.594;2024-01-30T01:29:06;101446.00;;;-1.55;90.52
85560;BME280;76003;49.038;16.594;2024-01-30T01:31:52;101463.13;;;-1.48;90.46
85560;BME280;76003;49.038;16.594;2024-01-30T01:34:32;101471.19;;;-1.48;90.51
85560;BME280;76003;49.038;16.594;2024-01-30T01:37:15;101435.56;;;-1.66;90.78
85560;BME280;76003;49.038;16.594;2024-01-30T01:39:55;101471.09;;;-1.38;90.31
85560;BME280;76003;49.038;16.594;2024-01-30T01:42:21;101422.53;;;-1.61;90.14
85560;BME280;76003;49.038;16.594;2024-01-30T01:46:04;101425.66;;;-1.65;90.19
85560;BME280;76003;49.038;16.594;2024-01-30T01:48:30;101412.22;;;-1.73;90.40
85560;BME280;76003;49.038;16.594;2024-01-30T01:51:16;101446.88;;;-1.72;90.53
85560;BME280;76003;49.038;16.594;2024-01-30T01:53:42;101460.03;;;-1.61;90.38
85560;BME280;76003;49.038;16.594;2024-01-30T01:56:29;101437.09;;;-1.63;90.63
85560;BME280;76003;49.038;16.594;2024-01-30T01:58:59;101460.09;;;-1.53;90.44
85560;BME280;76003;49.038;16.594;2024-01-30T02:02:03;101461.78;;;-1.52;90.62
85560;BME280;76003;49.038;16.594;2024-01-30T02:04:44;101460.41;;;-1.56;90.65
85560;BME280;76003;49.038;16.594;2024-01-30T02:07:25;101415.31;;;-1.86;90.49
85560;BME280;76003;49.038;16.594;2024-01-30T02:10:07;101440.44;;;-1.79;90.46
85560;BME280;76003;49.038;16.594;2024-01-30T02:12:49;101460.59;;;-1.49;90.49
85560;BME280;76003;49.038;16.594;2024-01-30T02:15:30;101459.72;;;-1.58;90.20
85560;BME280;76003;49.038;16.594;2024-01-30T02:17:56;101425.91;;;-1.76;90.48
85560;BME280;76003;49.038;16.594;2024-01-30T02:21:38;101444.81;;;-1.60;90.35
85560;BME280;76003;49.038;16.594;2024-01-30T02:24:05;101443.00;;;-1.52;90.45
85560;BME280;76003;49.038;16.594;2024-01-30T02:26:52;101456.38;;;-1.34;89.84
85560;BME280;76003;49.038;16.594;2024-01-30T02:29:17;101439.34;;;-1.51;90.02
85560;BME280;76003;49.038;16.594;2024-01-30T02:32:04;101386.16;;;-1.89;90.19
85560;BME280;76003;49.038;16.594;2024-01-30T02:34:31;101455.59;;;-1.52;90.07
85560;BME280;76003;49.038;16.594;2024-01-30T02:37:17;101436.88;;;-1.70;90.00
85560;BME280;76003;49.038;16.594;2024-01-30T02:39:43;101430.28;;;-1.75;90.10
85560;BME280;76003;49.038;16.594;2024-01-30T02:42:08;101457.41;;;-1.53;90.44
85560;BME280;76003;49.038;16.594;2024-01-30T02:44:34;101436.09;;;-1.80;90.46
85560;BME280;76003;49.038;16.594;2024-01-30T02:46:59;101454.75;;;-1.70;90.18
85560;BME280;76003;49.038;16.594;2024-01-30T02:49:24;101429.59;;;-1.77;89.83
85560;BME280;76003;49.038;16.594;2024-01-30T02:51:51;101442.38;;;-1.71;90.14
85560;BME280;76003;49.038;16.594;2024-01-30T02:54:32;101462.84;;;-1.45;89.63
85560;BME280;76003;49.038;16.594;2024-01-30T02:57:12;101447.47;;;-1.43;89.38
85560;BME280;76003;49.038;16.594;2024-01-30T02:59:38;101449.28;;;-1.43;89.31
85560;BME280;76003;49.038;16.594;2024-01-30T03:02:24;101437.00;;;-1.54;89.35
85560;BME280;76003;49.038;16.594;2024-01-30T03:05:05;101459.75;;;-1.32;89.43
85560;BME280;76003;49.038;16.594;2024-01-30T03:07:46;101453.75;;;-1.26;89.18
85560;BME280;76003;49.038;16.594;2024-01-30T03:10:25;101442.22;;;-1.27;89.05
85560;BME280;76003;49.038;16.594;2024-01-30T03:13:12;101438.47;;;-1.34;88.97
85560;BME280;76003;49.038;16.594;2024-01-30T03:15:39;101446.03;;;-1.29;89.32
85560;BME280;76003;49.038;16.594;2024-01-30T03:18:26;101439.09;;;-1.40;89.10
85560;BME280;76003;49.038;16.594;2024-01-30T03:21:51;101420.22;;;-1.56;89.50
85560;BME280;76003;49.038;16.594;2024-01-30T03:25:17;101421.84;;;-1.63;89.58
85560;BME280;76003;49.038;16.594;2024-01-30T03:28:42;101437.34;;;-1.49;89.54
85560;BME280;76003;49.038;16.594;2024-01-30T03:32:07;101418.34;;;-1.81;89.76
85560;BME280;76003;49.038;16.594;2024-01-30T03:34:33;101438.53;;;-1.69;89.75
85560;BME280;76003;49.038;16.594;2024-01-30T03:37:20;101423.22;;;-1.76;90.05
85560;BME280;76003;49.038;16.594;2024-01-30T03:40:01;101442.81;;;-1.76;89.90
85560;BME280;76003;49.038;16.594;2024-01-30T03:42:42;101414.38;;;-1.94;90.13
85560;BME280;76003;49.038;16.594;2024-01-30T03:45:09;101434.88;;;-1.85;89.81
85560;BME280;76003;49.038;16.594;2024-01-30T03:47:55;101401.81;;;-1.94;90.34
85560;BME280;76003;49.038;16.594;2024-01-30T03:50:22;101430.75;;;-1.80;90.17
85560;BME280;76003;49.038;16.594;2024-01-30T03:53:09;101425.63;;;-1.91;89.81
85560;BME280;76003;49.038;16.594;2024-01-30T03:55:49;101408.59;;;-1.90;90.40
85560;BME280;76003;49.038;16.594;2024-01-30T03:58:29;101423.16;;;-1.84;90.24
85560;BME280;76003;49.038;16.594;2024-01-30T04:01:16;101425.31;;;-1.88;89.92
85560;BME280;76003;49.038;16.594;2024-01-30T04:03:56;101398.72;;;-2.07;90.21
85560;BME280;76003;49.038;16.594;2024-01-30T04:06:37;101424.53;;;-1.98;90.05
85560;BME280;76003;49.038;16.594;2024-01-30T04:09:18;101408.03;;;-1.93;90.30
85560;BME280;76003;49.038;16.594;2024-01-30T04:11:58;101426.53;;;-1.82;90.43
85560;BME280;76003;49.038;16.594;2024-01-30T04:14:24;101407.66;;;-1.98;90.48
85560;BME280;76003;49.038;16.594;2024-01-30T04:17:11;101410.56;;;-1.92;90.18
85560;BME280;76003;49.038;16.594;2024-01-30T04:19:51;101392.91;;;-2.02;90.00
85560;BME280;76003;49.038;16.594;2024-01-30T04:22:17;101437.84;;;-1.71;89.79
85560;BME280;76003;49.038;16.594;2024-01-30T04:25:03;101422.16;;;-1.66;89.57
85560;BME280;76003;49.038;16.594;2024-01-30T04:27:29;101415.09;;;-1.67;89.51
85560;BME280;76003;49.038;16.594;2024-01-30T04:30:16;101398.16;;;-1.75;89.56
85560;BME280;76003;49.038;16.594;2024-01-30T04:32:56;101399.13;;;-1.76;89.29
85560;BME280;76003;49.038;16.594;2024-01-30T04:35:37;101420.47;;;-1.67;89.68
85560;BME280;76003;49.038;16.594;2024-01-30T04:38:18;101425.31;;;-1.70;89.62
85560;BME280;76003;49.038;16.594;2024-01-30T04:40:58;101387.78;;;-1.96;89.49
85560;BME280;76003;49.038;16.594;2024-01-30T04:43:39;101425.59;;;-1.73;89.78
85560;BME280;76003;49.038;16.594;2024-01-30T04:46:19;101396.81;;;-1.97;89.25
85560;BME280;76003;49.038;16.594;2024-01-30T04:49:00;101428.75;;;-1.78;89.12
85560;BME280;76003;49.038;16.594;2024-01-30T04:51:26;101432.03;;;-1.84;89.43
85560;BME280;76003;49.038;16.594;2024-01-30T04:54:12;101328.16;;;-2.41;89.50
85560;BME280;76003;49.038;16.594;2024-01-30T04:56:38;101422.41;;;-1.94;89.77
85560;BME280;76003;49.038;16.594;2024-01-30T04:59:25;101398.63;;;-1.97;89.84
85560;BME280;76003;49.038;16.594;2024-01-30T05:02:06;101422.19;;;-1.83;89.75
85560;BME280;76003;49.038;16.594;2024-01-30T05:04:47;101433.41;;;-1.62;89.79
85560;BME280;76003;49.038;16.594;2024-01-30T05:07:15;101422.84;;;-1.64;89.60
85560;BME280;76003;49.038;16.594;2024-01-30T05:10:01;101413.50;;;-1.60;88.93
85560;BME280;76003;49.038;16.594;2024-01-30T05:12:42;101434.06;;;-1.43;88.98
85560;BME280;76003;49.038;16.594;2024-01-30T05:15:22;101409.41;;;-1.46;88.19
85560;BME280;76003;49.038;16.594;2024-01-30T05:18:03;101418.75;;;-1.50;87.92
85560;BME280;76003;49.038;16.594;2024-01-30T05:20:29;101417.22;;;-1.53;88.01
85560;BME280;76003;49.038;16.594;2024-01-30T05:22:54;101449.19;;;-1.34;88.05
85560;BME280;76003;49.038;16.594;2024-01-30T05:25:35;101431.38;;;-1.43;87.57
85560;BME280;76003;49.038;16.594;2024-01-30T05:28:01;101452.53;;;-1.32;87.69
85560;BME280;76003;49.038;16.594;2024-01-30T05:30:47;101412.88;;;-1.54;87.92
85560;BME280;76003;49.038;16.594;2024-01-30T05:33:13;101433.97;;;-1.51;87.99
85560;BME280;76003;49.038;16.594;2024-01-30T05:35:59;101432.44;;;-1.53;87.82
85560;BME280;76003;49.038;16.594;2024-01-30T05:38:40;101448.78;;;-1.47;87.98
85560;BME280;76003;49.038;16.594;2024-01-30T05:41:48;101447.06;;;-1.48;88.04
85560;BME280;76003;49.038;16.594;2024-01-30T05:44:14;101424.84;;;-1.66;88.25
85560;BME280;76003;49.038;16.594;2024-01-30T05:47:00;101434.09;;;-1.60;88.32
85560;BME280;76003;49.038;16.594;2024-01-30T05:49:41;101436.53;;;-1.67;88.33
85560;BME280;76003;49.038;16.594;2024-01-30T05:52:07;101439.91;;;-1.65;88.32
85560;BME280;76003;49.038;16.594;2024-01-30T05:55:49;101439.59;;;-1.62;88.51
85560;BME280;76003;49.038;16.594;2024-01-30T05:59:15;101439.06;;;-1.65;88.21
85560;BME280;76003;49.038;16.594;2024-01-30T06:02:40;101370.34;;;-2.00;88.34
85560;BME280;76003;49.038;16.594;2024-01-30T06:05:06;101452.00;;;-1.61;88.62
85560;BME280;76003;49.038;16.594;2024-01-30T06:08:04;101450.31;;;-1.62;88.85
85560;BME280;76003;49.038;16.594;2024-01-30T06:10:29;101415.41;;;-1.95;88.59
85560;BME280;76003;49.038;16.594;2024-01-30T06:13:32;101430.88;;;-1.81;89.18
85560;BME280;76003;49.038;16.594;2024-01-30T06:16:59;101436.25;;;-1.81;88.48
85560;BME280;76003;49.038;16.594;2024-01-30T06:19:25;101425.91;;;-1.94;88.83
85560;BME280;76003;49.038;16.594;2024-01-30T06:22:11;101445.72;;;-1.87;89.07
85560;BME280;76003;49.038;16.594;2024-01-30T06:25:36;101450.34;;;-1.79;89.10
85560;BME280;76003;49.038;16.594;2024-01-30T06:28:02;101446.56;;;-1.69;88.53
85560;BME280;76003;49.038;16.594;2024-01-30T06:31:05;101453.38;;;-1.57;88.25
85560;BME280;76003;49.038;16.594;2024-01-30T06:34:30;101449.47;;;-1.62;88.00
85560;BME280;76003;49.038;16.594;2024-01-30T06:37:56;101448.91;;;-1.48;87.71
85560;BME280;76003;49.038;16.594;2024-01-30T06:40:22;101410.25;;;-1.46;86.56
85560;BME280;76003;49.038;16.594;2024-01-30T06:43:25;101450.81;;;-0.90;86.66
85560;BME280;76003;49.038;16.594;2024-01-30T06:45:51;101448.94;;;-0.64;84.81
85560;BME280;76003;49.038;16.594;2024-01-30T06:49:33;101436.81;;;-0.26;83.99
85560;BME280;76003;49.038;16.594;2024-01-30T06:52:00;101373.56;;;-0.21;81.92
85560;BME280;76003;49.038;16.594;2024-01-30T06:54:47;101443.09;;;0.71;79.37
85560;BME280;76003;49.038;16.594;2024-01-30T06:57:27;101466.03;;;1.13;77.75
85560;BME280;76003;49.038;16.594;2024-01-30T06:59:56;101441.66;;;1.61;75.52
85560;BME280;76003;49.038;16.594;2024-01-30T07:02:48;101435.56;;;2.20;72.89
85560;BME280;76003;49.038;16.594;2024-01-30T07:05:15;101443.59;;;2.65;72.47
85560;BME280;76003;49.038;16.594;2024-01-30T07:08:57;101450.91;;;2.94;71.08
85560;BME280;76003;49.038;16.594;2024-01-30T07:12:23;101456.44;;;3.44;69.53
85560;BME280;76003;49.038;16.594;2024-01-30T07:15:09;101447.78;;;3.05;68.38
85560;BME280;76003;49.038;16.594;2024-01-30T07:17:35;101441.38;;;3.49;68.08
85560;BME280;76003;49.038;16.594;2024-01-30T07:20:22;101455.09;;;4.19;66.00
85560;BME280;76003;49.038;16.594;2024-01-30T07:23:02;101454.63;;;4.57;64.15
85560;BME280;76003;49.038;16.594;2024-01-30T07:25:44;101465.72;;;5.11;62.79
85560;BME280;76003;49.038;16.594;2024-01-30T07:28:10;101449.78;;;6.04;62.67
85560;BME280;76003;49.038;16.594;2024-01-30T07:31:14;101437.75;;;6.39;59.85
85560;BME280;76003;49.038;16.594;2024-01-30T07:33:40;101454.38;;;6.10;58.75
85560;BME280;76003;49.038;16.594;2024-01-30T07:36:26;101445.09;;;6.71;57.64
85560;BME280;76003;49.038;16.594;2024-01-30T07:38:52;101460.63;;;7.73;56.29
85560;BME280;76003;49.038;16.594;2024-01-30T07:42:36;101454.59;;;8.52;55.31
85560;BME280;76003;49.038;16.594;2024-01-30T07:45:18;101451.09;;;9.19;52.33
85560;BME280;76003;49.038;16.594;2024-01-30T07:47:51;101456.56;;;9.62;50.82
85560;BME280;76003;49.038;16.594;2024-01-30T07:50:37;101453.66;;;9.57;48.18
85560;BME280;76003;49.038;16.594;2024-01-30T07:53:06;101442.81;;;10.04;47.95
85560;BME280;76003;49.038;16.594;2024-01-30T07:55:58;101457.38;;;10.46;46.97
85560;BME280;76003;49.038;16.594;2024-01-30T07:58:24;101441.22;;;10.97;48.49
85560;BME280;76003;49.038;16.594;2024-01-30T08:01:15;101468.72;;;12.94;43.18
85560;BME280;76003;49.038;16.594;2024-01-30T08:03:55;101469.50;;;13.40;42.54
85560;BME280;76003;49.038;16.594;2024-01-30T08:06:35;101469.56;;;13.61;39.48
85560;BME280;76003;49.038;16.594;2024-01-30T08:09:16;101438.97;;;14.17;39.08
85560;BME280;76003;49.038;16.594;2024-01-30T08:11:56;101459.63;;;14.41;38.46
85560;BME280;76003;49.038;16.594;2024-01-30T08:14:37;101433.41;;;14.55;38.17
85560;BME280;76003;49.038;16.594;2024-01-30T08:17:17;101452.88;;;13.46;38.95
85560;BME280;76003;49.038;16.594;2024-01-30T08:19:57;101468.94;;;13.21;37.47
85560;BME280;76003;49.038;16.594;2024-01-30T08:22:38;101455.72;;;12.29;38.63
85560;BME280;76003;49.038;16.594;2024-01-30T08:25:21;101470.16;;;14.49;36.18
85560;BME280;76003;49.038;16.594;2024-01-30T08:27:47;101470.28;;;13.02;38.61
85560;BME280;76003;49.038;16.594;2024-01-30T08:30:34;101466.78;;;14.95;36.21
85560;BME280;76003;49.038;16.594;2024-01-30T08:33:01;101475.28;;;16.03;33.53
85560;BME280;76003;49.038;16.594;2024-01-30T08:35:47;101439.78;;;14.61;34.87
85560;BME280;76003;49.038;16.594;2024-01-30T08:38:13;101469.66;;;14.09;35.70
85560;BME280;76003;49.038;16.594;2024-01-30T08:41:16;101476.69;;;16.06;33.10
85560;BME280;76003;49.038;16.594;2024-01-30T08:43:56;101482.81;;;13.15;36.79
85560;BME280;76003;49.038;16.594;2024-01-30T08:46:37;101481.78;;;12.87;38.56
85560;BME280;76003;49.038;16.594;2024-01-30T08:49:03;101459.06;;;14.66;35.79
85560;BME280;76003;49.038;16.594;2024-01-30T08:52:48;101461.16;;;14.11;36.47
85560;BME280;76003;49.038;16.594;2024-01-30T08:56:13;101479.78;;;13.66;37.13
85560;BME280;76003;49.038;16.594;2024-01-30T08:59:38;101466.84;;;13.45;37.69
85560;BME280;76003;49.038;16.594;2024-01-30T09:02:32;101444.38;;;14.07;36.46
85560;BME280;76003;49.038;16.594;2024-01-30T09:04:58;101474.75;;;13.79;36.14
85560;BME280;76003;49.038;16.594;2024-01-30T09:07:45;101494.28;;;12.67;38.20
85560;BME280;76003;49.038;16.594;2024-01-30T09:10:11;101458.03;;;12.48;38.84
85560;BME280;76003;49.038;16.594;2024-01-30T09:13:14;101469.84;;;12.65;39.96
85560;BME280;76003;49.038;16.594;2024-01-30T09:15:40;101477.78;;;12.50;40.43
85560;BME280;76003;49.038;16.594;2024-01-30T09:18:43;101484.06;;;13.07;38.54
85560;BME280;76003;49.038;16.594;2024-01-30T09:21:09;101475.84;;;13.24;38.33
85560;BME280;76003;49.038;16.594;2024-01-30T09:24:06;101463.53;;;13.26;37.71
85560;BME280;76003;49.038;16.594;2024-01-30T09:26:54;101463.78;;;13.08;37.90
85560;BME280;76003;49.038;16.594;2024-01-30T09:29:19;101462.81;;;12.13;39.15
85560;BME280;76003;49.038;16.594;2024-01-30T09:31:45;101483.09;;;12.01;40.62
85560;BME280;76003;49.038;16.594;2024-01-30T09:34:11;101487.16;;;11.98;40.82
85560;BME280;76003;49.038;16.594;2024-01-30T09:36:52;101469.38;;;12.68;38.50
85560;BME280;76003;49.038;16.594;2024-01-30T09:39:18;101459.38;;;12.06;40.60
85560;BME280;76003;49.038;16.594;2024-01-30T09:41:49;101491.56;;;11.42;42.66
85560;BME280;76003;49.038;16.594;2024-01-30T09:44:43;101483.19;;;12.17;40.47
85560;BME280;76003;49.038;16.594;2024-01-30T09:47:10;101482.16;;;11.49;43.27
85560;BME280;76003;49.038;16.594;2024-01-30T09:50:24;101465.44;;;12.08;41.07
85560;BME280;76003;49.038;16.594;2024-01-30T09:53:05;101473.41;;;12.21;41.50
85560;BME280;76003;49.038;16.594;2024-01-30T09:55:50;101465.25;;;11.87;40.64
85560;BME280;76003;49.038;16.594;2024-01-30T09:58:16;101444.47;;;11.74;40.64
85560;BME280;76003;49.038;16.594;2024-01-30T10:01:03;101476.31;;;13.04;40.34
85560;BME280;76003;49.038;16.594;2024-01-30T10:03:29;101479.50;;;14.05;36.76
85560;BME280;76003;49.038;16.594;2024-01-30T10:07:11;101464.53;;;12.31;39.82
85560;BME280;76003;49.038;16.594;2024-01-30T10:09:53;101443.19;;;13.60;37.84
85560;BME280;76003;49.038;16.594;2024-01-30T10:12:34;101462.38;;;12.33;41.11
85560;BME280;76003;49.038;16.594;2024-01-30T10:15:15;101433.84;;;13.99;38.27
85560;BME280;76003;49.038;16.594;2024-01-30T10:18:00;101450.34;;;12.62;38.92
85560;BME280;76003;49.038;16.594;2024-01-30T10:20:41;101452.38;;;13.16;38.95
85560;BME280;76003;49.038;16.594;2024-01-30T10:23:07;101448.97;;;13.80;38.33
85560;BME280;76003;49.038;16.594;2024-01-30T10:25:54;101422.97;;;12.50;39.32
85560;BME280;76003;49.038;16.594;2024-01-30T10:28:22;101445.28;;;12.87;40.00
85560;BME280;76003;49.038;16.594;2024-01-30T10:31:09;101431.16;;;13.45;38.67
85560;BME280;76003;49.038;16.594;2024-01-30T10:33:35;101428.28;;;13.02;39.76
85560;BME280;76003;49.038;16.594;2024-01-30T10:37:18;101417.03;;;12.25;41.12
85560;BME280;76003;49.038;16.594;2024-01-30T10:39:45;101400.34;;;13.05;39.32
85560;BME280;76003;49.038;16.594;2024-01-30T10:42:49;101409.53;;;14.61;35.58
85560;BME280;76003;49.038;16.594;2024-01-30T10:45:18;101373.00;;;15.43;34.07
85560;BME280;76003;49.038;16.594;2024-01-30T10:48:48;101399.28;;;14.56;35.26
85560;BME280;76003;49.038;16.594;2024-01-30T10:52:16;101402.56;;;14.53;36.27
85560;BME280;76003;49.038;16.594;2024-01-30T10:55:42;101379.97;;;15.14;35.25
85560;BME280;76003;49.038;16.594;2024-01-30T10:58:09;101382.53;;;14.89;34.76
85560;BME280;76003;49.038;16.594;2024-01-30T11:00:58;101387.22;;;15.77;33.69
85560;BME280;76003;49.038;16.594;2024-01-30T11:03:24;101374.94;;;15.99;33.77
85560;BME280;76003;49.038;16.594;2024-01-30T11:06:11;101395.41;;;16.28;33.24
85560;BME280;76003;49.038;16.594;2024-01-30T11:08:40;101376.16;;;15.62;34.52
85560;BME280;76003;49.038;16.594;2024-01-30T11:12:25;101368.91;;;14.41;35.51
85560;BME280;76003;49.038;16.594;2024-01-30T11:15:07;101383.97;;;12.76;38.96
85560;BME280;76003;49.038;16.594;2024-01-30T11:17:55;101366.44;;;13.32;38.63
85560;BME280;76003;49.038;16.594;2024-01-30T11:20:50;101359.31;;;14.75;35.24
85560;BME280;76003;49.038;16.594;2024-01-30T11:23:22;101384.63;;;12.83;39.65
85560;BME280;76003;49.038;16.594;2024-01-30T11:26:12;101378.06;;;13.01;39.65
85560;BME280;76003;49.038;16.594;2024-01-30T11:28:38;101340.94;;;12.60;40.92
85560;BME280;76003;49.038;16.594;2024-01-30T11:31:25;101334.03;;;11.97;41.17
85560;BME280;76003;49.038;16.594;2024-01-30T11:33:56;101356.84;;;13.51;38.32
85560;BME280;76003;49.038;16.594;2024-01-30T11:36:43;101356.72;;;14.95;36.08
85560;BME280;76003;49.038;16.594;2024-01-30T11:39:13;101373.25;;;13.46;37.76
85560;BME280;76003;49.038;16.594;2024-01-30T11:43:01;101360.69;;;12.95;40.73
85560;BME280;76003;49.038;16.594;2024-01-30T11:46:28;101337.41;;;11.87;43.04
85560;BME280;76003;49.038;16.594;2024-01-30T11:49:54;101353.91;;;11.64;42.74
85560;BME280;76003;49.038;16.594;2024-01-30T11:53:20;101324.47;;;8.54;51.41
85560;BME280;76003;49.038;16.594;2024-01-30T11:56:45;101345.88;;;7.89;53.58
85560;BME280;76003;49.038;16.594;2024-01-30T11:59:11;101293.72;;;7.23;57.01
85560;BME280;76003;49.038;16.594;2024-01-30T12:01:58;101239.66;;;6.45;55.93
85560;BME280;76003;49.038;16.594;2024-01-30T12:04:28;101304.94;;;6.76;56.47
85560;BME280;76003;49.038;16.594;2024-01-30T12:07:15;101299.56;;;6.37;52.76
85560;BME280;76003;49.038;16.594;2024-01-30T12:09:42;101326.06;;;6.48;53.53
85560;BME280;76003;49.038;16.594;2024-01-30T12:12:29;101344.88;;;6.56;55.35
85560;BME280;76003;49.038;16.594;2024-01-30T12:15:10;101336.94;;;6.42;54.20
85560;BME280;76003;49.038;16.594;2024-01-30T12:17:51;101331.91;;;6.19;54.89
85560;BME280;76003;49.038;16.594;2024-01-30T12:20:32;101335.06;;;6.23;54.77
85560;BME280;76003;49.038;16.594;2024-01-30T12:22:57;101313.31;;;6.16;54.83
85560;BME280;76003;49.038;16.594;2024-01-30T12:25:38;101321.50;;;6.23;55.42
85560;BME280;76003;49.038;16.594;2024-01-30T12:28:05;101287.03;;;6.04;55.64
85560;BME280;76003;49.038;16.594;2024-01-30T12:30:46;101257.34;;;5.70;55.95
85560;BME280;76003;49.038;16.594;2024-01-30T12:33:27;101293.06;;;5.86;56.45
85560;BME280;76003;49.038;16.594;2024-01-30T12:36:08;101296.19;;;5.83;55.50
85560;BME280;76003;49.038;16.594;2024-01-30T12:38:50;101283.28;;;5.92;56.66
85560;BME280;76003;49.038;16.594;2024-01-30T12:41:16;101295.38;;;5.89;55.76
85560;BME280;76003;49.038;16.594;2024-01-30T12:44:03;101275.47;;;5.69;56.33
85560;BME280;76003;49.038;16.594;2024-01-30T12:46:29;101282.63;;;5.83;57.79
85560;BME280;76003;49.038;16.594;2024-01-30T12:49:15;101293.28;;;5.98;59.39
85560;BME280;76003;49.038;16.594;2024-01-30T12:51:41;101297.47;;;6.07;58.44
85560;BME280;76003;49.038;16.594;2024-01-30T12:54:44;101259.44;;;5.74;56.50
85560;BME280;76003;49.038;16.594;2024-01-30T12:57:24;101289.31;;;5.94;57.48
85560;BME280;76003;49.038;16.594;2024-01-30T13:00:05;101294.97;;;6.05;58.42
85560;BME280;76003;49.038;16.594;2024-01-30T13:03:01;101275.78;;;6.07;55.59
85560;BME280;76003;49.038;16.594;2024-01-30T13:05:42;101297.88;;;6.23;57.00
85560;BME280;76003;49.038;16.594;2024-01-30T13:08:22;101294.13;;;6.11;57.39
85560;BME280;76003;49.038;16.594;2024-01-30T13:11:03;101285.16;;;5.91;57.53
85560;BME280;76003;49.038;16.594;2024-01-30T13:13:44;101274.28;;;5.85;57.02
85560;BME280;76003;49.038;16.594;2024-01-30T13:16:25;101267.22;;;5.90;57.71
85560;BME280;76003;49.038;16.594;2024-01-30T13:19:05;101292.88;;;6.01;56.96
85560;BME280;76003;49.038;16.594;2024-01-30T13:21:31;101294.75;;;5.94;57.69
85560;BME280;76003;49.038;16.594;2024-01-30T13:24:18;101287.44;;;5.81;58.23
85560;BME280;76003;49.038;16.594;2024-01-30T13:26:47;101290.75;;;5.83;58.65
85560;BME280;76003;49.038;16.594;2024-01-30T13:29:33;101253.59;;;5.64;58.00
85560;BME280;76003;49.038;16.594;2024-01-30T13:31:59;101283.69;;;5.82;57.88
85560;BME280;76003;49.038;16.594;2024-01-30T13:34:45;101264.50;;;5.90;58.67
85560;BME280;76003;49.038;16.594;2024-01-30T13:37:25;101249.69;;;5.93;57.25
85560;BME280;76003;49.038;16.594;2024-01-30T13:40:07;101230.50;;;5.81;56.88
85560;BME280;76003;49.038;16.594;2024-01-30T13:42:47;101255.97;;;5.93;56.22
85560;BME280;76003;49.038;16.594;2024-01-30T13:45:28;101218.78;;;5.74;55.30
85560;BME280;76003;49.038;16.594;2024-01-30T13:48:08;101279.72;;;6.04;55.69
85560;BME280;76003;49.038;16.594;2024-01-30T13:50:34;101238.78;;;5.67;54.44
85560;BME280;76003;49.038;16.594;2024-01-30T13:53:15;101270.13;;;5.89;55.43
85560;BME280;76003;49.038;16.594;2024-01-30T13:55:56;101272.84;;;5.82;55.57
85560;BME280;76003;49.038;16.594;2024-01-30T13:58:22;101256.94;;;5.73;55.70
85560;BME280;76003;49.038;16.594;2024-01-30T14:01:08;101242.94;;;5.63;56.25
85560;BME280;76003;49.038;16.594;2024-01-30T14:03:35;101238.38;;;5.57;56.20
85560;BME280;76003;49.038;16.594;2024-01-30T14:06:21;101254.22;;;5.73;55.69
85560;BME280;76003;49.038;16.594;2024-01-30T14:08:47;101238.97;;;5.59;56.54
85560;BME280;76003;49.038;16.594;2024-01-30T14:11:34;101260.06;;;5.76;55.46
85560;BME280;76003;49.038;16.594;2024-01-30T14:14:14;101256.94;;;5.60;56.57